Time;durP1;ratioP1;P1;durP2;ratioP2;P2;SDS_P1;SDS_P2;PMS_P1;PMS_P2;Temp;Humidity;BMP_temperature;BMP_pressure;BME280_temperature;BME280_humidity;BME280_pressure;Samples;Min_cycle;Max_cycle;Signal;HPM_P1;HPM_P2
2023/03/14 00:01:21;;;;;;;4.65;2.60;;;10.20;48.00;;;;;;4963533;28;114372;-81
2023/03/14 00:03:48;;;;;;;5.75;2.70;;;10.30;48.00;;;;;;4963753;28;115110;-80
2023/03/14 00:06:15;;;;;;;5.75;2.63;;;10.30;48.00;;;;;;4962726;28;115178;-80
2023/03/14 00:08:43;;;;;;;6.63;2.90;;;10.30;47.90;;;;;;4963682;28;115166;-80
2023/03/14 00:11:19;;;;;;;6.13;2.65;;;10.30;47.80;;;;;;4962654;28;114433;-81
2023/03/14 00:13:50;;;;;;;5.57;3.00;;;10.40;47.70;;;;;;4931180;28;114842;-81
2023/03/14 00:16:18;;;;;;;5.85;2.60;;;10.30;47.80;;;;;;4962117;28;115178;-79
2023/03/14 00:18:45;;;;;;;5.28;2.28;;;10.40;47.70;;;;;;4962434;28;114651;-80
2023/03/14 00:21:12;;;;;;;4.68;2.53;;;10.50;47.60;;;;;;4947399;28;114795;-79
2023/03/14 00:23:41;;;;;;;7.82;3.00;;;10.50;47.50;;;;;;4963790;28;116056;-79
2023/03/14 00:26:13;;;;;;;6.53;2.90;;;10.50;47.40;;;;;;4963936;28;115231;-80
2023/03/14 00:28:40;;;;;;;7.82;3.13;;;10.50;47.30;;;;;;4962624;28;114563;-80
2023/03/14 00:31:10;;;;;;;7.47;2.90;;;10.50;47.20;;;;;;4963012;28;114421;-80
2023/03/14 00:33:39;;;;;;;6.32;2.72;;;10.60;47.20;;;;;;4963895;28;114841;-80
2023/03/14 00:36:10;;;;;;;5.78;2.80;;;10.60;47.10;;;;;;4963634;28;115933;-80
2023/03/14 00:38:37;;;;;;;6.32;3.00;;;10.60;47.10;;;;;;4962412;28;114725;-80
2023/03/14 00:41:14;;;;;;;6.30;2.97;;;10.70;47.10;;;;;;4964085;28;114623;-80
2023/03/14 00:43:41;;;;;;;5.43;2.95;;;10.60;47.10;;;;;;4966608;28;114271;-80
2023/03/14 00:46:08;;;;;;;6.65;2.63;;;10.70;47.10;;;;;;4965665;28;115198;-80
2023/03/14 00:48:36;;;;;;;6.68;2.85;;;10.60;47.20;;;;;;4965241;28;114784;-80
2023/03/14 00:51:04;;;;;;;6.85;3.30;;;10.60;47.10;;;;;;4966506;28;114428;-80
2023/03/14 00:53:35;;;;;;;5.18;2.83;;;10.60;46.80;;;;;;4966285;28;115125;-80
2023/03/14 00:56:04;;;;;;;5.13;2.70;;;10.60;46.90;;;;;;4965514;28;115072;-80
2023/03/14 00:58:32;;;;;;;7.95;3.25;;;10.60;47.00;;;;;;4949960;28;114711;-80
2023/03/14 01:00:59;;;;;;;5.63;3.00;;;10.50;47.00;;;;;;4966228;28;114584;-81
2023/03/14 01:03:27;;;;;;;7.03;3.25;;;10.50;47.10;;;;;;4950225;28;114826;-80
2023/03/14 01:05:54;;;;;;;6.18;3.20;;;10.40;47.10;;;;;;4964351;28;117671;-79
2023/03/14 01:08:21;;;;;;;6.82;3.30;;;10.40;47.10;;;;;;4965302;28;114688;-80
2023/03/14 01:10:48;;;;;;;7.03;3.22;;;10.40;47.10;;;;;;4965574;28;114494;-80
2023/03/14 01:13:16;;;;;;;5.55;2.75;;;10.40;47.10;;;;;;4967373;28;114614;-80
2023/03/14 01:15:43;;;;;;;5.25;3.08;;;10.50;47.20;;;;;;4948984;28;115173;-80
2023/03/14 01:18:10;;;;;;;9.98;3.40;;;10.30;47.20;;;;;;4965394;28;114714;-79
2023/03/14 01:20:42;;;;;;;6.40;3.25;;;10.30;47.30;;;;;;4945554;28;114394;-79
2023/03/14 01:23:09;;;;;;;5.63;2.75;;;10.20;47.40;;;;;;4967551;28;114539;-80
2023/03/14 01:25:44;;;;;;;5.03;3.10;;;10.20;47.50;;;;;;4948194;28;115727;-80
2023/03/14 01:28:11;;;;;;;7.20;3.20;;;10.10;47.70;;;;;;4932300;28;116104;-80
2023/03/14 01:30:38;;;;;;;6.07;3.17;;;10.10;47.80;;;;;;4965326;28;114613;-81
2023/03/14 01:33:06;;;;;;;5.75;3.17;;;10.00;47.90;;;;;;4965003;28;114377;-80
2023/03/14 01:35:33;;;;;;;6.13;3.08;;;10.00;48.00;;;;;;4965108;28;115146;-80
2023/03/14 01:38:00;;;;;;;8.63;3.50;;;9.90;48.10;;;;;;4947873;28;114562;-80
2023/03/14 01:40:28;;;;;;;9.05;3.63;;;9.90;48.20;;;;;;4964869;28;114579;-81
2023/03/14 01:43:06;;;;;;;5.28;2.97;;;9.90;48.20;;;;;;4948764;28;114586;-81
2023/03/14 01:46:04;;;;;;;5.88;3.10;;;9.90;48.30;;;;;;4948080;28;115140;-80
2023/03/14 01:48:45;;;;;;;6.72;3.20;;;9.90;48.10;;;;;;4963998;28;114669;-80
2023/03/14 01:51:37;;;;;;;7.15;3.35;;;9.90;48.30;;;;;;4949047;28;114637;-80
2023/03/14 01:54:26;;;;;;;6.97;3.10;;;9.90;48.20;;;;;;4951443;28;114455;-80
2023/03/14 01:57:08;;;;;;;4.85;3.33;;;9.90;48.20;;;;;;4949782;28;115840;-80
2023/03/14 01:59:36;;;;;;;7.07;3.50;;;9.90;48.10;;;;;;4933372;28;114853;-80
2023/03/14 02:02:07;;;;;;;5.15;2.95;;;9.90;48.20;;;;;;4964543;28;114654;-80
2023/03/14 02:04:35;;;;;;;6.70;3.40;;;9.90;48.20;;;;;;4948849;28;114484;-80
2023/03/14 02:07:17;;;;;;;5.00;3.13;;;9.90;48.10;;;;;;4963712;28;115207;-80
2023/03/14 02:09:55;;;;;;;8.00;3.17;;;9.90;48.00;;;;;;4983284;28;114394;-80
2023/03/14 02:12:25;;;;;;;6.28;3.00;;;9.90;47.90;;;;;;4968113;28;114687;-80
2023/03/14 02:15:12;;;;;;;6.03;3.33;;;10.00;47.90;;;;;;4970906;28;114867;-80
2023/03/14 02:17:57;;;;;;;;;;;10.00;47.70;;;;;;4969613;28;115080;-80
2023/03/14 02:20:51;;;;;;;7.57;2.58;;;10.00;47.60;;;;;;4967163;28;116335;-80
2023/03/14 02:23:48;;;;;;;4.85;2.63;;;10.10;47.50;;;;;;4947572;28;114574;-80
2023/03/14 02:27:07;;;;;;;6.43;2.85;;;10.10;47.30;;;;;;4951080;28;114628;-80
2023/03/14 02:29:45;;;;;;;10.30;2.80;;;10.20;47.20;;;;;;4952849;28;117102;-80
2023/03/14 02:32:12;;;;;;;6.10;3.20;;;10.10;47.30;;;;;;4947642;28;114812;-80
2023/03/14 02:34:40;;;;;;;6.22;3.20;;;10.20;47.30;;;;;;4963853;28;116176;-81
2023/03/14 02:37:07;;;;;;;5.07;3.00;;;10.20;47.30;;;;;;4963785;28;114878;-81
2023/03/14 02:39:40;;;;;;;6.15;2.88;;;10.10;47.50;;;;;;4947074;28;117207;-81
2023/03/14 02:42:07;;;;;;;6.18;2.53;;;10.20;47.40;;;;;;4947283;28;114910;-81
2023/03/14 02:44:35;;;;;;;6.22;2.97;;;10.10;47.30;;;;;;4963876;28;114627;-81
2023/03/14 02:47:03;;;;;;;6.10;2.40;;;10.20;47.30;;;;;;4963462;28;114345;-82
2023/03/14 02:49:32;;;;;;;4.80;2.60;;;10.20;47.20;;;;;;4946380;28;115406;-81
2023/03/14 02:51:59;;;;;;;6.47;2.90;;;10.20;47.20;;;;;;4946519;28;115892;-81
2023/03/14 02:54:26;;;;;;;6.85;2.97;;;10.20;47.10;;;;;;4983599;28;114429;-81
2023/03/14 02:56:53;;;;;;;6.35;2.67;;;10.20;46.90;;;;;;4984488;28;114475;-81
2023/03/14 02:59:21;;;;;;;5.63;2.60;;;10.20;46.90;;;;;;4971403;28;115728;-81
2023/03/14 03:01:55;;;;;;;5.47;2.53;;;10.30;46.90;;;;;;4962908;28;115102;-81
2023/03/14 03:04:25;;;;;;;5.63;2.80;;;10.30;47.10;;;;;;4971874;28;114640;-81
2023/03/14 03:06:52;;;;;;;6.93;3.10;;;10.30;47.00;;;;;;4983712;28;114403;-81
2023/03/14 03:09:19;;;;;;;6.13;2.88;;;10.40;47.20;;;;;;4981388;28;115774;-81
2023/03/14 03:11:47;;;;;;;7.07;2.75;;;10.40;47.00;;;;;;4983187;28;115426;-81
2023/03/14 03:14:19;;;;;;;6.30;2.75;;;10.40;47.10;;;;;;4982541;28;116806;-81
2023/03/14 03:16:46;;;;;;;5.68;2.78;;;10.40;46.90;;;;;;4982642;28;114366;-81
2023/03/14 03:19:14;;;;;;;6.85;2.83;;;10.50;46.80;;;;;;4952676;28;115316;-81
2023/03/14 03:21:41;;;;;;;6.07;2.75;;;10.50;46.70;;;;;;4962452;28;114829;-81
2023/03/14 03:24:10;;;;;;;6.32;2.75;;;10.50;46.80;;;;;;4962231;28;115645;-81
2023/03/14 03:26:37;;;;;;;5.22;2.50;;;10.50;46.90;;;;;;4959988;28;115386;-81
2023/03/14 03:29:06;;;;;;;4.72;2.50;;;10.50;46.80;;;;;;4965342;28;116111;-81
2023/03/14 03:31:37;;;;;;;4.05;2.53;;;10.50;46.80;;;;;;4983656;28;114661;-82
2023/03/14 03:34:04;;;;;;;6.40;2.95;;;10.50;46.60;;;;;;4968513;28;114413;-81
2023/03/14 03:36:31;;;;;;;5.20;2.58;;;10.50;46.90;;;;;;4971283;28;116022;-81
2023/03/14 03:38:59;;;;;;;7.22;3.15;;;10.50;46.70;;;;;;4962472;28;115121;-81
2023/03/14 03:41:26;;;;;;;6.38;2.97;;;10.50;46.80;;;;;;4963164;28;114612;-81
2023/03/14 03:43:54;;;;;;;4.35;2.78;;;10.50;46.70;;;;;;4963547;28;114599;-81
2023/03/14 03:46:22;;;;;;;5.90;3.00;;;10.40;46.70;;;;;;4946588;28;114873;-81
2023/03/14 03:48:57;;;;;;;6.60;2.92;;;10.40;46.60;;;;;;4962377;28;116400;-81
2023/03/14 03:51:26;;;;;;;6.20;3.00;;;10.50;46.60;;;;;;4946661;28;115102;-81
2023/03/14 03:53:53;;;;;;;7.82;2.92;;;10.40;46.80;;;;;;4963522;28;116149;-81
2023/03/14 03:56:27;;;;;;;4.88;2.55;;;10.40;46.90;;;;;;4963679;28;114471;-81
2023/03/14 03:58:54;;;;;;;5.97;3.05;;;10.30;46.80;;;;;;4965319;28;117158;-81
2023/03/14 04:01:23;;;;;;;7.32;3.90;;;10.30;46.80;;;;;;4981927;28;115784;-81
2023/03/14 04:03:54;;;;;;;6.45;3.45;;;10.20;47.00;;;;;;4966797;28;114931;-81
2023/03/14 04:06:24;;;;;;;7.00;3.15;;;10.20;47.00;;;;;;4982862;28;114492;-81
2023/03/14 04:08:54;;;;;;;7.13;3.35;;;10.20;47.10;;;;;;4956943;28;115885;-81
2023/03/14 04:11:35;;;;;;;8.30;3.58;;;10.10;47.20;;;;;;4948032;28;114665;-80
2023/03/14 04:14:25;;;;;;;6.22;3.15;;;10.10;47.30;;;;;;4963263;28;114780;-81
2023/03/14 04:17:00;;;;;;;6.60;3.33;;;10.10;47.40;;;;;;4965819;28;114454;-82
2023/03/14 04:19:29;;;;;;;6.32;3.03;;;10.10;47.40;;;;;;4933619;28;115657;-80
2023/03/14 04:21:56;;;;;;;6.18;3.58;;;10.10;47.30;;;;;;4965978;28;114646;-81
2023/03/14 04:24:27;;;;;;;5.60;2.88;;;10.10;47.30;;;;;;4950683;28;115168;-80
2023/03/14 04:26:56;;;;;;;5.72;3.25;;;10.10;47.40;;;;;;4965961;28;114384;-81
2023/03/14 04:29:24;;;;;;;6.82;3.17;;;10.10;47.20;;;;;;4965167;28;115093;-81
2023/03/14 04:31:51;;;;;;;6.55;3.45;;;10.00;47.10;;;;;;4949423;28;115110;-81
2023/03/14 04:34:19;;;;;;;8.75;3.55;;;9.90;47.30;;;;;;4948643;28;117713;-79
2023/03/14 04:36:51;;;;;;;6.07;3.50;;;9.90;47.50;;;;;;4966618;28;114471;-80
2023/03/14 04:39:23;;;;;;;9.07;3.60;;;9.90;47.60;;;;;;4965331;28;115634;-80
2023/03/14 04:41:57;;;;;;;6.55;3.40;;;9.90;47.70;;;;;;4965017;28;117208;-79
2023/03/14 04:44:27;;;;;;;10.50;3.35;;;9.90;47.80;;;;;;4966357;28;114897;-80
2023/03/14 04:46:57;;;;;;;8.65;4.00;;;9.90;47.90;;;;;;4942427;28;116480;-80
2023/03/14 04:49:25;;;;;;;9.20;4.15;;;9.90;48.00;;;;;;4968745;28;115286;-79
2023/03/14 04:51:53;;;;;;;13.77;6.03;;;9.90;48.20;;;;;;4952412;28;114632;-79
2023/03/14 04:54:21;;;;;;;21.08;8.20;;;9.90;48.30;;;;;;4969300;28;114431;-79
2023/03/14 04:56:53;;;;;;;10.35;4.57;;;10.00;48.30;;;;;;4969678;28;115160;-79
2023/03/14 04:59:20;;;;;;;9.57;4.50;;;9.90;48.30;;;;;;4984812;28;115183;-79
2023/03/14 05:01:49;;;;;;;8.30;3.90;;;9.90;48.30;;;;;;4968577;28;114894;-79
2023/03/14 05:04:24;;;;;;;8.45;3.55;;;9.90;48.30;;;;;;4985710;28;117031;-79
2023/03/14 05:07:14;;;;;;;8.80;3.78;;;9.90;48.20;;;;;;4983129;28;114747;-79
2023/03/14 05:09:56;;;;;;;10.10;4.13;;;9.80;48.40;;;;;;4974221;28;115738;-79
2023/03/14 05:12:38;;;;;;;9.32;4.28;;;9.80;48.50;;;;;;4986172;28;114410;-80
2023/03/14 05:15:20;;;;;;;10.95;4.43;;;9.80;48.60;;;;;;4986328;28;114304;-80
2023/03/14 05:18:01;;;;;;;10.18;4.22;;;9.80;48.60;;;;;;4970745;28;115924;-79
2023/03/14 05:20:45;;;;;;;10.05;4.30;;;9.80;48.70;;;;;;4983915;28;115053;-79
2023/03/14 05:23:38;;;;;;;7.18;3.75;;;9.80;48.80;;;;;;4971319;28;114958;-80
2023/03/14 05:26:16;;;;;;;9.63;4.05;;;9.80;48.80;;;;;;4970576;28;114435;-79
2023/03/14 05:29:00;;;;;;;9.20;3.78;;;9.80;48.90;;;;;;4984415;28;116584;-79
2023/03/14 05:31:34;;;;;;;7.40;3.70;;;9.70;48.90;;;;;;4949424;28;115063;-79
2023/03/14 05:34:19;;;;;;;7.95;3.88;;;9.80;48.90;;;;;;4964830;28;114648;-80
2023/03/14 05:37:09;;;;;;;8.60;3.95;;;9.80;49.00;;;;;;4964677;28;116291;-79
2023/03/14 05:39:55;;;;;;;7.90;4.15;;;9.80;49.10;;;;;;4967285;28;116858;-79
2023/03/14 05:42:37;;;;;;;8.13;3.75;;;9.70;49.00;;;;;;4964760;28;115398;-80
2023/03/14 05:45:23;;;;;;;11.32;3.88;;;9.70;49.00;;;;;;4964812;28;115036;-80
2023/03/14 05:47:50;;;;;;;9.88;4.22;;;9.80;49.00;;;;;;4966216;28;114381;-80
2023/03/14 05:50:30;;;;;;;7.22;3.58;;;9.80;48.80;;;;;;4965568;28;115067;-79
2023/03/14 05:53:23;;;;;;;9.00;4.40;;;9.70;48.80;;;;;;4963944;28;115740;-80
2023/03/14 05:56:09;;;;;;;6.75;3.40;;;9.70;48.80;;;;;;4964379;28;117335;-80
2023/03/14 05:58:46;;;;;;;11.43;4.15;;;9.80;48.90;;;;;;4965000;28;114436;-80
2023/03/14 06:01:26;;;;;;;9.23;3.75;;;9.80;49.00;;;;;;4965305;28;114777;-80
2023/03/14 06:04:06;;;;;;;7.20;4.40;;;9.80;48.80;;;;;;4949943;28;115239;-80
2023/03/14 06:06:34;;;;;;;10.23;4.47;;;9.90;48.90;;;;;;4964609;28;114716;-80
2023/03/14 06:09:01;;;;;;;9.02;4.18;;;9.80;48.80;;;;;;4964732;28;114494;-80
2023/03/14 06:11:31;;;;;;;9.00;4.10;;;9.90;48.90;;;;;;4965182;28;114591;-81
2023/03/14 06:13:58;;;;;;;8.63;4.55;;;9.90;49.00;;;;;;4947636;28;115202;-80
2023/03/14 06:16:26;;;;;;;10.20;4.45;;;9.90;48.80;;;;;;4982051;28;116423;-79
2023/03/14 06:19:07;;;;;;;10.07;4.70;;;9.90;48.90;;;;;;4959646;28;114582;-80
2023/03/14 06:21:35;;;;;;;10.30;4.43;;;10.00;48.90;;;;;;4949236;28;114734;-80
2023/03/14 06:24:03;;;;;;;12.45;5.32;;;9.90;49.00;;;;;;4975068;28;115552;-80
2023/03/14 06:26:35;;;;;;;10.02;4.85;;;10.00;49.00;;;;;;4967808;28;115421;-80
2023/03/14 06:29:03;;;;;;;11.02;4.35;;;10.00;49.00;;;;;;4984617;28;114434;-80
2023/03/14 06:31:34;;;;;;;7.00;4.15;;;10.00;49.10;;;;;;4984428;28;114728;-80
2023/03/14 06:34:05;;;;;;;8.52;4.00;;;10.00;49.00;;;;;;4952227;28;115555;-80
2023/03/14 06:36:34;;;;;;;7.22;3.78;;;10.00;49.00;;;;;;4967157;28;114739;-81
2023/03/14 06:39:01;;;;;;;6.82;3.55;;;10.00;49.10;;;;;;4984058;28;114569;-80
2023/03/14 06:41:32;;;;;;;8.02;4.35;;;10.00;49.10;;;;;;4951880;28;114546;-80
2023/03/14 06:44:05;;;;;;;7.25;3.70;;;10.10;49.20;;;;;;4959032;28;115222;-80
2023/03/14 06:46:33;;;;;;;7.50;3.42;;;10.10;49.10;;;;;;4947823;28;116098;-80
2023/03/14 06:49:00;;;;;;;7.28;3.47;;;10.10;49.00;;;;;;4948311;28;114394;-80
2023/03/14 06:51:28;;;;;;;8.10;3.70;;;10.10;48.90;;;;;;4948720;28;114472;-80
2023/03/14 06:53:55;;;;;;;7.13;3.83;;;10.20;48.80;;;;;;4963655;28;115394;-80
2023/03/14 06:56:26;;;;;;;6.40;3.55;;;10.20;48.90;;;;;;4916278;28;117886;-81
2023/03/14 06:58:55;;;;;;;6.40;3.40;;;10.20;48.90;;;;;;4932937;28;114484;-80
2023/03/14 07:01:26;;;;;;;7.00;4.18;;;10.30;49.00;;;;;;4964580;28;114382;-80
2023/03/14 07:04:00;;;;;;;6.75;3.20;;;10.40;48.90;;;;;;4932819;28;115790;-81
2023/03/14 07:06:29;;;;;;;8.00;4.10;;;10.50;49.00;;;;;;4947592;28;114678;-81
2023/03/14 07:08:56;;;;;;;6.32;3.63;;;10.50;48.90;;;;;;4931982;28;114490;-79
2023/03/14 07:11:24;;;;;;;7.57;3.45;;;10.60;48.70;;;;;;4948571;28;114420;-80
2023/03/14 07:13:51;;;;;;;6.55;3.50;;;10.60;48.60;;;;;;4964975;28;115108;-80
2023/03/14 07:16:20;;;;;;;6.45;3.55;;;10.70;48.60;;;;;;4963571;28;115182;-80
2023/03/14 07:18:49;;;;;;;7.47;3.65;;;10.70;48.50;;;;;;4932037;28;114893;-80
2023/03/14 07:21:16;;;;;;;7.95;3.10;;;10.80;48.40;;;;;;4964942;28;114522;-80
2023/03/14 07:23:43;;;;;;;5.95;3.03;;;10.90;48.00;;;;;;4963568;28;115197;-80
2023/03/14 07:26:13;;;;;;;8.00;3.53;;;11.00;48.00;;;;;;4947561;28;114926;-81
2023/03/14 07:28:45;;;;;;;6.07;2.97;;;11.20;48.00;;;;;;4963965;28;114624;-81
2023/03/14 07:31:16;;;;;;;6.72;4.00;;;11.30;47.60;;;;;;4963956;28;114490;-81
2023/03/14 07:33:43;;;;;;;7.90;3.05;;;11.40;47.30;;;;;;4947379;28;115286;-79
2023/03/14 07:36:11;;;;;;;6.25;3.20;;;11.70;47.10;;;;;;4957344;28;114547;-81
2023/03/14 07:38:42;;;;;;;8.05;3.38;;;11.70;46.90;;;;;;4932000;28;114528;-81
2023/03/14 07:41:27;;;;;;;7.70;3.33;;;11.80;46.70;;;;;;4950084;28;114459;-82
2023/03/14 07:44:12;;;;;;;8.15;3.70;;;11.70;46.50;;;;;;4964202;28;115100;-81
2023/03/14 07:46:40;;;;;;;6.40;3.17;;;11.80;46.40;;;;;;4963468;28;116000;-81
2023/03/14 07:49:08;;;;;;;8.07;3.90;;;11.80;46.30;;;;;;4963895;28;114440;-81
2023/03/14 07:51:35;;;;;;;5.80;3.45;;;11.80;46.40;;;;;;4967439;28;114458;-81
2023/03/14 07:54:02;;;;;;;7.40;3.28;;;11.80;46.40;;;;;;4966898;28;116273;-81
2023/03/14 07:56:29;;;;;;;7.60;3.25;;;11.80;46.30;;;;;;4967531;28;115302;-81
2023/03/14 07:58:57;;;;;;;8.38;3.60;;;11.80;46.30;;;;;;4963820;28;116797;-81
2023/03/14 08:01:24;;;;;;;9.85;3.92;;;11.80;46.50;;;;;;4988286;28;114474;-81
2023/03/14 08:03:51;;;;;;;7.70;4.15;;;11.70;46.40;;;;;;4987135;28;115108;-82
2023/03/14 08:06:18;;;;;;;8.43;3.15;;;11.80;46.40;;;;;;4987247;28;115161;-81
2023/03/14 08:08:46;;;;;;;6.68;3.38;;;11.70;46.50;;;;;;4986538;28;114452;-81
2023/03/14 08:11:13;;;;;;;6.47;3.17;;;11.70;46.70;;;;;;4988081;28;114924;-81
2023/03/14 08:13:40;;;;;;;10.90;4.22;;;11.80;46.90;;;;;;4985837;28;119230;-81
2023/03/14 08:16:08;;;;;;;9.23;4.13;;;11.80;46.80;;;;;;4987037;28;114729;-82
2023/03/14 08:18:35;;;;;;;8.45;4.50;;;11.90;47.00;;;;;;4987438;28;114885;-81
2023/03/14 08:21:03;;;;;;;7.38;4.00;;;12.00;47.10;;;;;;4970777;28;115471;-81
2023/03/14 08:23:30;;;;;;;6.70;3.95;;;12.00;46.90;;;;;;4965686;28;116440;-81
2023/03/14 08:25:57;;;;;;;8.23;3.83;;;12.00;46.70;;;;;;4967020;28;114613;-80
2023/03/14 08:28:30;;;;;;;6.53;3.40;;;12.00;46.60;;;;;;4950974;28;114711;-81
2023/03/14 08:30:57;;;;;;;5.55;3.63;;;12.00;46.60;;;;;;4964873;28;114505;-81
2023/03/14 08:33:26;;;;;;;8.02;3.30;;;12.00;46.60;;;;;;4949580;28;115193;-81
2023/03/14 08:35:58;;;;;;;7.30;3.13;;;11.90;46.60;;;;;;4967468;28;114772;-81
2023/03/14 08:38:25;;;;;;;7.38;4.20;;;11.90;46.80;;;;;;4934489;28;114951;-81
2023/03/14 08:40:59;;;;;;;12.45;3.70;;;11.90;46.80;;;;;;4966601;28;114757;-81
2023/03/14 08:43:27;;;;;;;;;;;11.90;47.00;;;;;;4966421;28;117781;-80
2023/03/14 08:45:57;;;;;;;5.47;3.65;;;11.80;47.10;;;;;;4967054;28;114722;-81
2023/03/14 08:48:24;;;;;;;9.15;3.55;;;11.80;47.40;;;;;;4966600;28;114764;-81
2023/03/14 08:50:52;;;;;;;7.20;3.40;;;11.80;47.30;;;;;;4966378;28;114484;-81
2023/03/14 08:53:20;;;;;;;6.35;3.38;;;11.90;47.20;;;;;;4964863;28;115194;-82
2023/03/14 08:55:54;;;;;;;6.47;2.97;;;12.00;47.10;;;;;;4965501;28;114626;-82
2023/03/14 08:58:23;;;;;;;6.07;3.22;;;12.10;47.00;;;;;;4949559;28;114823;-81
2023/03/14 09:00:50;;;;;;;7.30;3.45;;;12.10;47.00;;;;;;4966241;28;114867;-81
2023/03/14 09:03:18;;;;;;;7.65;3.10;;;12.10;47.00;;;;;;4966120;28;115187;-82
2023/03/14 09:05:45;;;;;;;5.53;3.20;;;12.20;46.90;;;;;;4965283;28;114695;-81
2023/03/14 09:08:15;;;;;;;17.30;6.80;;;12.20;47.00;;;;;;4965610;28;114408;-81
2023/03/14 09:10:45;;;;;;;6.90;3.50;;;12.30;47.00;;;;;;4965595;28;114484;-81
2023/03/14 09:13:12;;;;;;;7.35;3.17;;;12.40;46.90;;;;;;4966356;28;115228;-82
2023/03/14 09:15:42;;;;;;;9.25;3.00;;;12.60;46.70;;;;;;4965344;28;114753;-81
2023/03/14 09:18:09;;;;;;;20.80;4.22;;;12.70;46.60;;;;;;4966309;28;114363;-81
2023/03/14 09:20:36;;;;;;;6.40;3.08;;;12.80;46.40;;;;;;4967173;28;114521;-81
2023/03/14 09:23:07;;;;;;;17.83;4.13;;;12.90;46.10;;;;;;4948918;28;115248;-81
2023/03/14 09:25:37;;;;;;;49.88;6.38;;;13.00;46.00;;;;;;4965653;28;114655;-81
2023/03/14 09:28:05;;;;;;;8.20;3.83;;;13.00;45.90;;;;;;4965841;28;114382;-82
2023/03/14 09:30:32;;;;;;;17.67;5.18;;;13.10;45.60;;;;;;4964970;28;114979;-81
2023/03/14 09:32:59;;;;;;;23.52;5.30;;;13.00;45.80;;;;;;4958633;28;115301;-81
2023/03/14 09:35:27;;;;;;;17.42;5.43;;;13.00;45.90;;;;;;4965577;28;114711;-81
2023/03/14 09:37:54;;;;;;;24.77;5.35;;;13.10;45.80;;;;;;4966482;28;114335;-81
2023/03/14 09:40:23;;;;;;;19.35;5.07;;;13.00;45.50;;;;;;4965219;28;115765;-81
2023/03/14 09:42:51;;;;;;;28.20;5.25;;;13.00;45.80;;;;;;4963727;28;115904;-82
2023/03/14 09:45:29;;;;;;;13.55;4.15;;;12.90;46.10;;;;;;4932189;28;118098;-82
2023/03/14 09:47:57;;;;;;;15.63;4.25;;;12.70;46.40;;;;;;4964961;28;114645;-81
2023/03/14 09:50:30;;;;;;;7.20;3.58;;;12.70;46.60;;;;;;4966630;28;114816;-81
2023/03/14 09:53:03;;;;;;;7.90;3.92;;;12.70;46.80;;;;;;4964387;28;115217;-81
2023/03/14 09:55:30;;;;;;;11.20;4.95;;;12.70;46.80;;;;;;4964133;28;114647;-81
2023/03/14 09:58:01;;;;;;;15.93;5.05;;;12.70;46.80;;;;;;4964709;28;115434;-81
2023/03/14 10:00:30;;;;;;;12.40;4.80;;;12.70;47.00;;;;;;4950116;28;114527;-81
2023/03/14 10:03:09;;;;;;;9.60;4.30;;;12.70;47.10;;;;;;4964694;28;115844;-82
2023/03/14 10:05:36;;;;;;;37.03;6.25;;;12.70;47.10;;;;;;4948172;28;117965;-81
2023/03/14 10:08:04;;;;;;;31.00;6.50;;;12.70;47.20;;;;;;4965056;28;114542;-81
2023/03/14 10:10:31;;;;;;;12.40;4.63;;;12.70;47.20;;;;;;4964707;28;114561;-81
2023/03/14 10:13:18;;;;;;;16.92;4.10;;;12.60;47.20;;;;;;4963355;28;115260;-81
2023/03/14 10:16:01;;;;;;;25.05;5.45;;;12.70;47.40;;;;;;4964382;28;114677;-81
2023/03/14 10:18:30;;;;;;;83.20;9.85;;;12.60;47.40;;;;;;4958984;28;120438;-81
2023/03/14 10:21:07;;;;;;;22.77;5.20;;;12.60;47.50;;;;;;4968290;28;114514;-81
2023/03/14 10:23:35;;;;;;;26.35;6.03;;;12.60;47.40;;;;;;4966977;28;115227;-81
2023/03/14 10:26:17;;;;;;;13.73;4.72;;;12.60;47.50;;;;;;4950638;28;117920;-80
2023/03/14 10:29:03;;;;;;;12.90;4.60;;;12.60;47.90;;;;;;4984515;28;114552;-81
2023/03/14 10:32:09;;;;;;;19.02;4.75;;;12.60;47.70;;;;;;4984102;28;114561;-81
2023/03/14 10:34:37;;;;;;;10.93;4.50;;;12.60;47.70;;;;;;4982155;28;115522;-81
2023/03/14 10:37:25;;;;;;;47.30;7.40;;;12.50;47.80;;;;;;4967073;28;114698;-81
2023/03/14 10:39:54;;;;;;;20.85;5.88;;;12.60;47.90;;;;;;4985036;28;114552;-81
2023/03/14 10:42:29;;;;;;;75.65;21.35;;;12.50;47.90;;;;;;4928085;28;114505;-82
2023/03/14 10:45:43;;;;;;;46.92;7.90;;;12.50;48.10;;;;;;4963340;28;115208;-82
2023/03/14 10:48:29;;;;;;;29.58;5.47;;;12.50;48.00;;;;;;4963457;28;115608;-81
2023/03/14 10:51:05;;;;;;;14.45;4.15;;;12.40;48.10;;;;;;4969568;28;115985;-81
2023/03/14 10:53:41;;;;;;;23.50;5.45;;;12.30;48.30;;;;;;4984032;28;114397;-81
2023/03/14 10:56:17;;;;;;;20.52;5.22;;;12.30;48.50;;;;;;4983243;28;115088;-82
2023/03/14 10:58:46;;;;;;;29.80;6.63;;;12.40;48.80;;;;;;4982944;28;114819;-81
2023/03/14 11:01:32;;;;;;;12.65;4.55;;;12.50;48.80;;;;;;4983814;28;114459;-81
2023/03/14 11:04:03;;;;;;;35.28;6.10;;;12.50;48.70;;;;;;4985151;28;114575;-81
2023/03/14 11:07:06;;;;;;;25.13;5.43;;;12.60;48.80;;;;;;4982502;28;115899;-81
2023/03/14 11:10:08;;;;;;;25.08;5.70;;;12.70;48.60;;;;;;4982863;28;115210;-81
2023/03/14 11:13:06;;;;;;;12.25;4.70;;;12.70;48.60;;;;;;4974989;28;116696;-80
2023/03/14 11:15:43;;;;;;;14.77;5.25;;;12.70;48.60;;;;;;4955573;28;114575;-81
2023/03/14 11:18:47;;;;;;;12.68;5.70;;;12.70;48.40;;;;;;4949770;28;115278;-81
2023/03/14 11:21:59;;;;;;;8.05;4.13;;;12.70;48.40;;;;;;4966311;28;114937;-81
2023/03/14 11:25:02;;;;;;;13.65;4.63;;;12.70;48.30;;;;;;4981785;28;114578;-80
2023/03/14 11:27:46;;;;;;;6.55;3.20;;;12.70;48.70;;;;;;4959934;28;114519;-80
2023/03/14 11:30:27;;;;;;;14.77;4.00;;;12.60;48.60;;;;;;4959770;28;115954;-80
2023/03/14 11:33:15;;;;;;;7.22;3.35;;;12.60;48.80;;;;;;4962968;28;114593;-79
2023/03/14 11:36:09;;;;;;;6.35;3.10;;;12.60;49.00;;;;;;4963316;28;114443;-80
2023/03/14 11:38:50;;;;;;;18.10;3.55;;;12.70;48.90;;;;;;4963613;28;115982;-81
2023/03/14 11:41:27;;;;;;;6.03;3.28;;;12.50;49.50;;;;;;4962410;28;115757;-81
2023/03/14 11:43:57;;;;;;;6.55;3.80;;;12.40;49.60;;;;;;4946063;28;115846;-80
2023/03/14 11:46:39;;;;;;;5.75;3.38;;;12.40;49.90;;;;;;4962704;28;115715;-82
2023/03/14 11:49:35;;;;;;;5.40;2.83;;;12.50;50.20;;;;;;4947639;28;114520;-81
2023/03/14 11:52:29;;;;;;;5.93;3.00;;;12.40;50.30;;;;;;4962360;28;117360;-81
2023/03/14 11:55:35;;;;;;;6.22;2.80;;;12.30;50.60;;;;;;4948703;28;114985;-81
2023/03/14 11:58:33;;;;;;;7.10;2.97;;;12.30;50.60;;;;;;4930974;28;119476;-81
2023/03/14 12:01:07;;;;;;;5.63;3.38;;;12.30;50.90;;;;;;4946854;28;114748;-81
2023/03/14 12:03:34;;;;;;;5.25;3.28;;;12.20;51.10;;;;;;4946667;28;115170;-80
2023/03/14 12:06:52;;;;;;;6.65;3.50;;;12.20;51.10;;;;;;4963959;28;114821;-80
2023/03/14 12:09:20;;;;;;;6.65;3.58;;;12.30;51.20;;;;;;4963669;28;114503;-81
2023/03/14 12:11:56;;;;;;;8.80;4.00;;;12.20;51.50;;;;;;4963337;28;114723;-82
2023/03/14 12:14:34;;;;;;;6.32;3.47;;;12.20;51.90;;;;;;4946630;28;116314;-81
2023/03/14 12:17:28;;;;;;;5.05;3.13;;;12.20;52.00;;;;;;4962869;28;114728;-81
2023/03/14 12:20:14;;;;;;;5.80;3.10;;;12.20;52.20;;;;;;4955813;28;114586;-81
2023/03/14 12:23:16;;;;;;;7.00;3.28;;;12.20;52.40;;;;;;4962642;28;114719;-81
2023/03/14 12:25:43;;;;;;;8.68;4.00;;;12.20;52.10;;;;;;4960512;28;117715;-81
2023/03/14 12:28:20;;;;;;;9.07;4.78;;;12.10;52.80;;;;;;4963022;28;114778;-80
2023/03/14 12:30:48;;;;;;;7.07;4.07;;;12.10;52.90;;;;;;4962925;28;115643;-79
2023/03/14 12:33:20;;;;;;;7.35;4.78;;;12.10;53.10;;;;;;4964392;28;114680;-79
2023/03/14 12:36:12;;;;;;;9.90;6.68;;;12.20;53.30;;;;;;4962484;28;117660;-79
2023/03/14 12:39:13;;;;;;;8.15;5.25;;;12.20;53.10;;;;;;4949038;28;114671;-80
2023/03/14 12:41:52;;;;;;;10.60;5.50;;;12.10;53.40;;;;;;4965073;28;114391;-80
2023/03/14 12:44:30;;;;;;;8.82;5.00;;;12.10;53.80;;;;;;4966890;28;114513;-80
2023/03/14 12:47:16;;;;;;;6.82;3.70;;;12.10;53.90;;;;;;4966391;28;115519;-80
2023/03/14 12:49:48;;;;;;;6.00;3.60;;;12.00;53.90;;;;;;4964944;28;116599;-79
2023/03/14 12:53:06;;;;;;;6.53;3.10;;;12.00;54.00;;;;;;4950562;28;114384;-80
2023/03/14 12:56:07;;;;;;;5.18;3.70;;;12.00;54.10;;;;;;4964841;28;114690;-80
2023/03/14 12:58:39;;;;;;;4.60;2.92;;;12.00;54.20;;;;;;4966234;28;115042;-80
2023/03/14 13:01:11;;;;;;;5.20;3.40;;;11.90;54.50;;;;;;4965480;28;114841;-80
2023/03/14 13:03:53;;;;;;;7.10;3.63;;;11.90;54.70;;;;;;4965437;28;114736;-80
2023/03/14 13:06:56;;;;;;;5.65;4.00;;;11.90;54.90;;;;;;4950256;28;115012;-80
2023/03/14 13:09:32;;;;;;;6.90;3.60;;;11.90;54.60;;;;;;4963504;28;115797;-79
2023/03/14 13:12:14;;;;;;;7.60;3.67;;;11.80;55.20;;;;;;4964505;28;115252;-80
2023/03/14 13:14:44;;;;;;;8.32;3.88;;;11.80;55.40;;;;;;4965830;28;114482;-80